createdAt,value
2017-12-06T00:00:05.278Z,0.00
2017-12-06T00:01:05.263Z,0.00
2017-12-06T00:02:05.255Z,0.00
2017-12-06T00:03:05.249Z,0.00
2017-12-06T00:04:05.243Z,0.00
2017-12-06T00:05:05.235Z,0.00
2017-12-06T00:06:05.222Z,0.00
2017-12-06T00:07:05.213Z,0.00
2017-12-06T00:08:05.218Z,0.00
2017-12-06T00:09:05.199Z,0.00
2017-12-06T00:10:05.190Z,0.00
2017-12-06T00:11:05.176Z,0.00
2017-12-06T00:12:05.173Z,0.00
2017-12-06T00:13:05.160Z,0.00
2017-12-06T00:14:05.158Z,0.00
2017-12-06T00:15:05.143Z,0.00
2017-12-06T00:16:05.158Z,0.00
2017-12-06T00:17:05.129Z,0.00
2017-12-06T00:18:05.132Z,0.00
2017-12-06T00:19:05.111Z,0.00
2017-12-06T00:20:05.108Z,0.00
2017-12-06T00:21:05.097Z,0.00
2017-12-06T00:22:05.083Z,0.00
2017-12-06T00:23:05.078Z,0.00
2017-12-06T00:24:05.084Z,0.00
2017-12-06T00:25:05.065Z,0.00
2017-12-06T00:26:05.053Z,0.00
2017-12-06T00:27:05.045Z,0.00
2017-12-06T00:28:05.046Z,0.00
2017-12-06T00:29:05.033Z,0.00
2017-12-06T00:30:05.025Z,0.00
2017-12-06T00:31:05.012Z,0.00
2017-12-06T00:32:05.004Z,0.00
2017-12-06T00:33:04.993Z,0.00
2017-12-06T00:34:04.978Z,0.00
2017-12-06T00:35:04.972Z,0.00
2017-12-06T00:36:04.969Z,0.00
2017-12-06T00:37:04.968Z,0.00
2017-12-06T00:38:04.949Z,0.00
2017-12-06T00:39:04.960Z,0.00
2017-12-06T00:40:04.929Z,0.00
2017-12-06T00:41:04.922Z,0.00
2017-12-06T00:42:04.917Z,0.00
2017-12-06T00:43:04.911Z,0.00
2017-12-06T00:44:04.900Z,0.00
2017-12-06T00:45:04.893Z,0.00
2017-12-06T00:46:04.886Z,0.00
2017-12-06T00:47:04.872Z,0.00
2017-12-06T00:48:04.869Z,0.00
2017-12-06T00:49:04.858Z,0.00
2017-12-06T00:50:04.842Z,0.00
2017-12-06T00:51:04.840Z,0.00
2017-12-06T00:52:04.826Z,0.00
2017-12-06T00:53:04.832Z,0.00
2017-12-06T00:54:04.810Z,0.00
2017-12-06T00:55:04.810Z,0.00
2017-12-06T00:56:04.802Z,0.00
2017-12-06T00:57:04.789Z,0.00
2017-12-06T00:58:04.782Z,0.00
2017-12-06T00:59:04.783Z,0.00
2017-12-06T01:00:04.769Z,0.00
2017-12-06T01:01:04.756Z,0.00
2017-12-06T01:02:04.753Z,0.00
2017-12-06T01:03:04.738Z,0.00
2017-12-06T01:04:04.740Z,0.00
2017-12-06T01:05:04.728Z,0.00
2017-12-06T01:06:04.715Z,0.00
2017-12-06T01:07:04.707Z,0.00
2017-12-06T01:08:04.697Z,0.00
2017-12-06T01:09:04.686Z,0.00
2017-12-06T01:10:04.678Z,0.00
2017-12-06T01:11:04.672Z,0.00
2017-12-06T01:12:04.663Z,0.00
2017-12-06T01:13:04.649Z,0.00
2017-12-06T01:14:04.651Z,0.00
2017-12-06T01:15:04.642Z,0.00
2017-12-06T01:16:04.628Z,0.00
2017-12-06T01:17:04.618Z,0.00
2017-12-06T01:18:04.622Z,0.00
2017-12-06T01:19:04.602Z,0.00
2017-12-06T01:20:04.594Z,0.00
2017-12-06T01:21:04.594Z,0.00
2017-12-06T01:22:04.581Z,0.00
2017-12-06T01:23:04.584Z,0.00
2017-12-06T01:24:04.563Z,0.00
2017-12-06T01:25:04.553Z,0.00
2017-12-06T01:26:04.539Z,0.00
2017-12-06T01:27:04.534Z,0.00
2017-12-06T01:28:04.533Z,0.00
2017-12-06T01:29:04.516Z,0.00
2017-12-06T01:30:04.508Z,0.00
2017-12-06T01:31:04.501Z,0.00
2017-12-06T01:32:04.495Z,0.00
2017-12-06T01:33:04.487Z,0.00
2017-12-06T01:34:04.475Z,0.00
2017-12-06T01:35:04.467Z,0.00
2017-12-06T01:36:04.460Z,0.00
2017-12-06T01:37:04.455Z,0.00
2017-12-06T01:38:04.443Z,0.00
2017-12-06T01:39:04.432Z,0.00
2017-12-06T01:40:04.431Z,0.00
2017-12-06T01:41:04.422Z,0.00
2017-12-06T01:42:04.407Z,0.00
2017-12-06T01:43:04.402Z,0.00
2017-12-06T01:44:04.395Z,0.00
2017-12-06T01:45:04.381Z,0.00
2017-12-06T01:46:04.373Z,0.00
2017-12-06T01:47:04.370Z,0.00
2017-12-06T01:48:04.350Z,0.00
2017-12-06T01:49:04.344Z,0.00
2017-12-06T01:50:04.342Z,0.00
2017-12-06T01:51:04.331Z,0.00
2017-12-06T01:52:04.321Z,0.00
2017-12-06T01:53:04.318Z,0.00
2017-12-06T01:54:04.306Z,0.00
2017-12-06T01:55:04.305Z,0.00
2017-12-06T01:56:04.291Z,0.00
2017-12-06T01:57:04.285Z,0.00
2017-12-06T01:58:04.312Z,0.00
2017-12-06T01:59:04.260Z,0.00
2017-12-06T02:00:04.256Z,0.00
2017-12-06T02:01:04.260Z,0.00
2017-12-06T02:02:04.249Z,0.00
2017-12-06T02:03:04.229Z,0.00
2017-12-06T02:04:04.214Z,0.00
2017-12-06T02:05:04.220Z,0.00
2017-12-06T02:06:04.206Z,0.00
2017-12-06T02:07:04.201Z,0.00
2017-12-06T02:08:04.206Z,0.00
2017-12-06T02:09:04.180Z,0.00
2017-12-06T02:10:04.169Z,0.00
2017-12-06T02:11:04.161Z,0.00
2017-12-06T02:12:04.154Z,0.00
2017-12-06T02:13:04.146Z,0.00
2017-12-06T02:14:04.138Z,0.00
2017-12-06T02:15:04.129Z,0.00
2017-12-06T02:16:04.120Z,0.00
2017-12-06T02:17:04.115Z,0.00
2017-12-06T02:18:04.113Z,0.00
2017-12-06T02:19:04.096Z,0.00
2017-12-06T02:20:04.095Z,0.00
2017-12-06T02:21:04.078Z,0.00
2017-12-06T02:22:04.061Z,0.00
2017-12-06T02:23:04.059Z,0.00
2017-12-06T02:24:04.062Z,0.00
2017-12-06T02:25:04.043Z,0.00
2017-12-06T02:26:04.038Z,0.00
2017-12-06T02:27:04.046Z,0.00
2017-12-06T02:28:04.017Z,0.00
2017-12-06T02:29:04.015Z,0.00
2017-12-06T02:30:04.001Z,0.00
2017-12-06T02:31:03.996Z,0.00
2017-12-06T02:32:03.988Z,0.00
2017-12-06T02:33:03.997Z,0.00
2017-12-06T02:34:03.969Z,0.00
2017-12-06T02:35:03.973Z,0.00
2017-12-06T02:36:03.957Z,0.00
2017-12-06T02:37:03.961Z,0.00
2017-12-06T02:38:03.942Z,0.00
2017-12-06T02:39:03.950Z,0.00
2017-12-06T02:40:03.918Z,0.00
2017-12-06T02:41:03.913Z,0.00
2017-12-06T02:42:03.905Z,0.00
2017-12-06T02:43:03.908Z,0.00
2017-12-06T02:44:03.887Z,0.00
2017-12-06T02:45:03.900Z,0.00
2017-12-06T02:46:03.866Z,0.00
2017-12-06T02:47:03.862Z,0.00
2017-12-06T02:48:03.855Z,0.00
2017-12-06T02:49:03.839Z,0.00
2017-12-06T02:50:03.857Z,0.00
2017-12-06T02:51:03.830Z,0.00
2017-12-06T02:52:03.826Z,0.00
2017-12-06T02:53:03.828Z,0.00
2017-12-06T02:54:03.796Z,0.00
2017-12-06T02:55:03.786Z,0.00
2017-12-06T02:56:03.782Z,0.00
2017-12-06T02:57:03.782Z,0.00
2017-12-06T02:58:03.765Z,0.00
2017-12-06T02:59:03.763Z,0.00
2017-12-06T03:00:03.748Z,0.00
2017-12-06T03:01:03.751Z,0.00
2017-12-06T03:02:03.729Z,0.00
2017-12-06T03:03:03.744Z,0.00
2017-12-06T03:04:03.737Z,0.00
2017-12-06T03:05:03.713Z,0.00
2017-12-06T03:06:03.701Z,0.00
2017-12-06T03:07:03.706Z,0.00
2017-12-06T03:08:03.690Z,0.00
2017-12-06T03:09:03.669Z,0.00
2017-12-06T03:10:03.673Z,0.00
2017-12-06T03:11:03.657Z,0.00
2017-12-06T03:12:03.652Z,0.00
2017-12-06T03:13:03.646Z,0.00
2017-12-06T03:14:03.632Z,0.00
2017-12-06T03:15:03.633Z,0.00
2017-12-06T03:16:03.612Z,0.00
2017-12-06T03:17:03.618Z,0.00
2017-12-06T03:18:03.600Z,0.00
2017-12-06T03:19:03.597Z,0.00
2017-12-06T03:20:03.585Z,0.00
2017-12-06T03:21:03.571Z,0.00
2017-12-06T03:22:03.568Z,0.00
2017-12-06T03:23:03.570Z,0.00
2017-12-06T03:24:03.562Z,0.00
2017-12-06T03:25:03.547Z,0.00
2017-12-06T03:26:03.539Z,0.00
2017-12-06T03:27:03.523Z,0.00
2017-12-06T03:28:03.515Z,0.00
2017-12-06T03:29:03.521Z,0.00
2017-12-06T03:30:03.501Z,0.00
2017-12-06T03:31:03.575Z,0.00
2017-12-06T03:32:03.487Z,0.00
2017-12-06T03:33:03.486Z,0.00
2017-12-06T03:34:03.475Z,0.00
2017-12-06T03:35:03.457Z,0.00
2017-12-06T03:36:03.455Z,0.00
2017-12-06T03:37:03.444Z,0.00
2017-12-06T03:38:03.435Z,0.00
2017-12-06T03:39:03.425Z,0.00
2017-12-06T03:40:03.421Z,0.00
2017-12-06T03:41:03.405Z,0.00
2017-12-06T03:42:03.412Z,0.00
2017-12-06T03:43:03.394Z,0.00
2017-12-06T03:44:03.392Z,0.00
2017-12-06T03:45:03.375Z,0.00
2017-12-06T03:46:03.360Z,0.00
2017-12-06T03:47:03.354Z,0.00
2017-12-06T03:48:03.348Z,0.00
2017-12-06T03:49:03.339Z,0.00
2017-12-06T03:50:03.335Z,0.00
2017-12-06T03:51:03.323Z,0.00
2017-12-06T03:52:03.343Z,0.00
2017-12-06T03:53:03.307Z,0.00
2017-12-06T03:54:03.301Z,0.00
2017-12-06T03:55:03.306Z,0.00
2017-12-06T03:56:03.285Z,0.00
2017-12-06T03:57:03.275Z,0.00
2017-12-06T03:58:03.259Z,0.00
2017-12-06T03:59:03.257Z,0.00
2017-12-06T04:00:03.248Z,0.00
2017-12-06T04:01:03.242Z,0.00
2017-12-06T04:02:03.232Z,0.00
2017-12-06T04:03:03.227Z,0.00
2017-12-06T04:04:03.216Z,0.00
2017-12-06T04:05:03.210Z,0.00
2017-12-06T04:06:03.200Z,0.00
2017-12-06T04:07:03.194Z,0.00
2017-12-06T04:08:03.184Z,0.00
2017-12-06T04:09:03.188Z,0.00
2017-12-06T04:10:03.166Z,0.00
2017-12-06T04:11:03.158Z,0.00
2017-12-06T04:12:03.173Z,0.00
2017-12-06T04:13:03.161Z,0.00
2017-12-06T04:14:03.132Z,0.00
2017-12-06T04:15:03.124Z,0.00
2017-12-06T04:16:03.115Z,0.00
2017-12-06T04:17:03.118Z,0.00
2017-12-06T04:18:03.100Z,0.00
2017-12-06T04:19:03.089Z,0.00
2017-12-06T04:20:03.096Z,0.00
2017-12-06T04:21:03.076Z,0.00
2017-12-06T04:22:03.070Z,0.00
2017-12-06T04:23:03.050Z,0.00
2017-12-06T04:24:03.063Z,0.00
2017-12-06T04:25:03.033Z,0.00
2017-12-06T04:26:03.050Z,0.00
2017-12-06T04:27:03.021Z,0.00
2017-12-06T04:28:03.013Z,0.00
2017-12-06T04:29:03.012Z,0.00
2017-12-06T04:30:03.002Z,0.00
2017-12-06T04:31:02.991Z,0.00
2017-12-06T04:32:02.989Z,0.00
2017-12-06T04:33:02.984Z,0.00
2017-12-06T04:34:02.966Z,0.00
2017-12-06T04:35:02.956Z,0.00
2017-12-06T04:36:02.957Z,0.00
2017-12-06T04:37:02.934Z,0.00
2017-12-06T04:38:02.924Z,0.00
2017-12-06T04:39:02.928Z,0.00
2017-12-06T04:40:02.917Z,0.00
2017-12-06T04:41:02.907Z,0.00
2017-12-06T04:42:02.900Z,0.00
2017-12-06T04:43:02.887Z,0.00
2017-12-06T04:44:02.902Z,0.00
2017-12-06T04:45:02.882Z,0.00
2017-12-06T04:46:02.863Z,0.00
2017-12-06T04:47:02.863Z,0.00
2017-12-06T04:48:02.845Z,0.00
2017-12-06T04:49:02.841Z,0.00
2017-12-06T04:50:02.826Z,0.00
2017-12-06T04:51:02.832Z,0.00
2017-12-06T04:52:02.823Z,0.00
2017-12-06T04:53:02.805Z,0.00
2017-12-06T04:54:02.793Z,0.00
2017-12-06T04:55:02.788Z,0.00
2017-12-06T04:56:02.778Z,0.00
2017-12-06T04:57:02.768Z,0.00
2017-12-06T04:58:02.763Z,0.00
2017-12-06T04:59:02.759Z,0.00
2017-12-06T05:00:02.745Z,0.00
2017-12-06T05:01:02.749Z,0.00
2017-12-06T05:02:02.730Z,0.00
2017-12-06T05:03:02.727Z,0.00
2017-12-06T05:04:02.714Z,0.00
2017-12-06T05:05:02.723Z,0.00
2017-12-06T05:06:02.700Z,0.00
2017-12-06T05:07:02.688Z,0.00
2017-12-06T05:08:02.684Z,0.00
2017-12-06T05:09:02.678Z,0.00
2017-12-06T05:10:02.662Z,0.00
2017-12-06T05:11:02.657Z,0.00
2017-12-06T05:12:02.654Z,0.00
2017-12-06T05:13:02.639Z,0.00
2017-12-06T05:14:02.630Z,0.00
2017-12-06T05:15:02.619Z,0.00
2017-12-06T05:16:02.616Z,0.00
2017-12-06T05:17:02.600Z,0.00
2017-12-06T05:18:02.592Z,0.00
2017-12-06T05:19:02.589Z,0.00
2017-12-06T05:20:02.584Z,0.00
2017-12-06T05:21:02.572Z,0.00
2017-12-06T05:22:02.564Z,0.00
2017-12-06T05:23:02.558Z,0.00
2017-12-06T05:24:02.550Z,0.00
2017-12-06T05:25:02.536Z,0.00
2017-12-06T05:26:02.534Z,0.00
2017-12-06T05:27:02.522Z,0.00
2017-12-06T05:28:02.516Z,0.00
2017-12-06T05:29:02.512Z,0.00
2017-12-06T05:30:02.502Z,0.00
2017-12-06T05:31:02.490Z,0.00
2017-12-06T05:32:02.484Z,0.00
2017-12-06T05:33:02.474Z,0.00
2017-12-06T05:34:02.464Z,0.00
2017-12-06T05:35:02.457Z,0.00
2017-12-06T05:36:02.457Z,0.00
2017-12-06T05:37:02.443Z,0.00
2017-12-06T05:38:02.437Z,0.00
2017-12-06T05:39:02.424Z,0.00
2017-12-06T05:40:02.417Z,0.00
2017-12-06T05:41:02.412Z,0.00
2017-12-06T05:42:02.400Z,0.00
2017-12-06T05:43:02.389Z,0.00
2017-12-06T05:44:02.389Z,0.00
2017-12-06T05:45:02.378Z,0.00
2017-12-06T05:46:02.373Z,0.00
2017-12-06T05:47:04.158Z,0.00
2017-12-06T05:48:02.351Z,0.00
2017-12-06T05:49:02.338Z,0.00
2017-12-06T05:50:02.338Z,0.00
2017-12-06T05:51:02.322Z,0.00
2017-12-06T05:52:02.319Z,0.00
2017-12-06T05:53:02.309Z,0.00
2017-12-06T05:54:02.298Z,0.00
2017-12-06T05:55:02.295Z,0.00
2017-12-06T05:56:02.287Z,0.00
2017-12-06T05:57:02.270Z,0.00
2017-12-06T05:58:02.269Z,0.00
2017-12-06T05:59:02.256Z,0.00
2017-12-06T06:00:02.264Z,0.00
2017-12-06T06:01:02.248Z,0.00
2017-12-06T06:02:02.233Z,0.00
2017-12-06T06:03:02.221Z,0.00
2017-12-06T06:04:02.220Z,0.00
2017-12-06T06:05:02.217Z,0.00
2017-12-06T06:06:02.196Z,0.00
2017-12-06T06:07:02.189Z,0.00
2017-12-06T06:08:02.178Z,0.00
2017-12-06T06:09:02.177Z,0.00
2017-12-06T06:10:02.167Z,0.00
2017-12-06T06:11:02.160Z,0.00
2017-12-06T06:12:02.157Z,0.00
2017-12-06T06:13:02.153Z,0.00
2017-12-06T06:14:02.138Z,0.00
2017-12-06T06:15:02.132Z,0.00
2017-12-06T06:16:02.134Z,0.00
2017-12-06T06:17:02.109Z,0.00
2017-12-06T06:18:02.106Z,0.00
2017-12-06T06:19:02.099Z,0.00
2017-12-06T06:20:02.086Z,0.00
2017-12-06T06:21:02.080Z,0.00
2017-12-06T06:22:02.065Z,0.00
2017-12-06T06:23:02.064Z,0.00
2017-12-06T06:24:02.049Z,0.00
2017-12-06T06:25:02.051Z,0.00
2017-12-06T06:26:02.042Z,0.00
2017-12-06T06:27:02.027Z,0.00
2017-12-06T06:28:02.021Z,0.00
2017-12-06T06:29:02.011Z,0.00
2017-12-06T06:30:02.003Z,0.00
2017-12-06T06:31:01.996Z,0.00
2017-12-06T06:32:01.983Z,0.00
2017-12-06T06:33:01.991Z,0.00
2017-12-06T06:34:01.966Z,0.00
2017-12-06T06:35:01.974Z,0.00
2017-12-06T06:36:01.954Z,0.00
2017-12-06T06:37:01.946Z,0.00
2017-12-06T06:38:01.932Z,0.00
2017-12-06T06:39:01.926Z,0.00
2017-12-06T06:40:01.922Z,0.00
2017-12-06T06:41:01.915Z,0.00
2017-12-06T06:42:01.908Z,0.00
2017-12-06T06:43:01.897Z,0.00
2017-12-06T06:44:01.895Z,0.00
2017-12-06T06:45:01.878Z,0.00
2017-12-06T06:46:01.861Z,0.00
2017-12-06T06:47:01.854Z,0.00
2017-12-06T06:48:01.865Z,0.00
2017-12-06T06:49:01.847Z,0.00
2017-12-06T06:50:01.845Z,0.00
2017-12-06T06:51:01.830Z,0.00
2017-12-06T06:52:01.820Z,0.00
2017-12-06T06:53:01.815Z,0.00
2017-12-06T06:54:01.804Z,4.00
2017-12-06T06:55:01.794Z,0.00
2017-12-06T06:56:01.794Z,0.00
2017-12-06T06:57:01.782Z,4.00
2017-12-06T06:58:01.773Z,4.00
2017-12-06T06:59:01.773Z,4.00
2017-12-06T07:00:01.760Z,4.00
2017-12-06T07:01:01.757Z,4.00
2017-12-06T07:02:01.739Z,8.00
2017-12-06T07:03:01.734Z,8.00
2017-12-06T07:04:01.727Z,8.00
2017-12-06T07:05:01.719Z,8.00
2017-12-06T07:06:01.707Z,12.00
2017-12-06T07:07:01.701Z,8.00
2017-12-06T07:08:01.701Z,16.00
2017-12-06T07:09:01.696Z,16.00
2017-12-06T07:10:01.679Z,16.00
2017-12-06T07:11:01.669Z,16.00
2017-12-06T07:12:01.686Z,20.00
2017-12-06T07:13:01.649Z,20.00
2017-12-06T07:14:01.641Z,24.00
2017-12-06T07:15:01.637Z,28.00
2017-12-06T07:16:01.636Z,36.00
2017-12-06T07:17:01.621Z,36.00
2017-12-06T07:18:01.611Z,40.00
2017-12-06T07:19:01.599Z,44.00
2017-12-06T07:20:01.601Z,44.00
2017-12-06T07:21:01.662Z,44.00
2017-12-06T07:22:01.586Z,56.00
2017-12-06T07:23:01.567Z,60.00
2017-12-06T07:24:01.560Z,64.00
2017-12-06T07:25:01.557Z,64.00
2017-12-06T07:26:01.544Z,80.00
2017-12-06T07:27:01.541Z,88.00
2017-12-06T07:28:01.534Z,92.00
2017-12-06T07:29:01.522Z,88.00
2017-12-06T07:30:01.509Z,92.00
2017-12-06T07:31:01.505Z,96.00
2017-12-06T07:32:01.499Z,96.00
2017-12-06T07:33:01.497Z,96.00
2017-12-06T07:34:01.488Z,120.00
2017-12-06T07:35:01.488Z,124.00
2017-12-06T07:36:01.471Z,124.00
2017-12-06T07:37:01.464Z,124.00
2017-12-06T07:38:01.446Z,124.00
2017-12-06T07:39:01.442Z,132.00
2017-12-06T07:40:01.437Z,156.00
2017-12-06T07:41:01.468Z,176.00
2017-12-06T07:42:01.425Z,180.00
2017-12-06T07:43:01.401Z,184.00
2017-12-06T07:44:01.405Z,180.00
2017-12-06T07:45:02.208Z,196.00
2017-12-06T07:46:01.387Z,204.00
2017-12-06T07:47:01.379Z,220.00
2017-12-06T07:48:01.372Z,224.00
2017-12-06T07:49:01.362Z,232.00
2017-12-06T07:50:01.356Z,240.00
2017-12-06T07:51:01.346Z,248.00
2017-12-06T07:52:01.347Z,272.00
2017-12-06T07:53:01.350Z,280.00
2017-12-06T07:54:01.326Z,308.00
2017-12-06T07:55:01.316Z,316.00
2017-12-06T07:56:01.311Z,328.00
2017-12-06T07:57:01.299Z,328.00
2017-12-06T07:58:01.287Z,324.00
2017-12-06T07:59:01.279Z,340.00
2017-12-06T08:00:01.281Z,364.00
2017-12-06T08:01:01.265Z,404.00
2017-12-06T08:02:01.256Z,420.00
2017-12-06T08:03:01.254Z,412.00
2017-12-06T08:04:01.244Z,404.00
2017-12-06T08:05:01.229Z,392.00
2017-12-06T08:06:01.225Z,420.00
2017-12-06T08:07:01.220Z,420.00
2017-12-06T08:08:01.214Z,432.00
2017-12-06T08:09:01.213Z,420.00
2017-12-06T08:10:01.203Z,492.00
2017-12-06T08:11:01.186Z,512.00
2017-12-06T08:12:01.181Z,528.00
2017-12-06T08:13:01.174Z,536.00
2017-12-06T08:14:01.167Z,564.00
2017-12-06T08:15:01.154Z,568.00
2017-12-06T08:16:01.151Z,548.00
2017-12-06T08:17:01.151Z,576.00
2017-12-06T08:18:01.138Z,616.00
2017-12-06T08:19:01.122Z,652.00
2017-12-06T08:20:01.109Z,668.00
2017-12-06T08:21:01.107Z,648.00
2017-12-06T08:22:01.105Z,656.00
2017-12-06T08:23:01.093Z,660.00
2017-12-06T08:24:01.103Z,632.00
2017-12-06T08:25:01.080Z,648.00
2017-12-06T08:26:01.072Z,672.00
2017-12-06T08:27:01.066Z,724.00
2017-12-06T08:28:01.056Z,720.00
2017-12-06T08:29:01.057Z,732.00
2017-12-06T08:30:01.041Z,728.00
2017-12-06T08:31:01.025Z,672.00
2017-12-06T08:32:01.016Z,620.00
2017-12-06T08:33:01.020Z,592.00
2017-12-06T08:34:01.004Z,648.00
2017-12-06T08:35:01.000Z,640.00
2017-12-06T08:36:00.994Z,712.00
2017-12-06T08:37:00.982Z,684.00
2017-12-06T08:38:00.977Z,640.00
2017-12-06T08:39:00.972Z,696.00
2017-12-06T08:40:00.969Z,728.00
2017-12-06T08:41:00.956Z,704.00
2017-12-06T08:42:00.944Z,688.00
2017-12-06T08:43:00.933Z,640.00
2017-12-06T08:44:00.925Z,620.00
2017-12-06T08:45:00.921Z,680.00
2017-12-06T08:46:00.911Z,696.00
2017-12-06T08:47:00.911Z,732.00
2017-12-06T08:48:00.906Z,732.00
2017-12-06T08:49:00.894Z,688.00
2017-12-06T08:50:00.894Z,680.00
2017-12-06T08:51:00.875Z,664.00
2017-12-06T08:52:00.868Z,716.00
2017-12-06T08:53:00.864Z,716.00
2017-12-06T08:54:00.855Z,780.00
2017-12-06T08:55:00.835Z,760.00
2017-12-06T08:56:00.837Z,804.00
2017-12-06T08:57:00.829Z,788.00
2017-12-06T08:58:00.826Z,796.00
2017-12-06T08:59:00.822Z,816.00
2017-12-06T09:00:00.809Z,872.00
2017-12-06T09:01:00.803Z,908.00
2017-12-06T09:02:00.789Z,908.00
2017-12-06T09:03:00.782Z,1000.00
2017-12-06T09:04:00.779Z,1100.00
2017-12-06T09:05:00.768Z,996.00
2017-12-06T09:06:00.763Z,892.00
2017-12-06T09:07:00.751Z,840.00
2017-12-06T09:08:00.749Z,828.00
2017-12-06T09:09:00.740Z,960.00
2017-12-06T09:10:00.737Z,1080.00
2017-12-06T09:11:00.720Z,1096.00
2017-12-06T09:12:00.709Z,1156.00
2017-12-06T09:13:00.710Z,1028.00
2017-12-06T09:14:00.699Z,952.00
2017-12-06T09:15:00.696Z,1048.00
2017-12-06T09:16:00.680Z,1256.00
2017-12-06T09:17:00.685Z,1240.00
2017-12-06T09:18:01.236Z,1212.00
2017-12-06T09:19:00.661Z,1244.00
2017-12-06T09:20:00.659Z,1220.00
2017-12-06T09:21:00.651Z,1208.00
2017-12-06T09:22:00.642Z,1232.00
2017-12-06T09:23:00.641Z,1220.00
2017-12-06T09:24:00.632Z,1264.00
2017-12-06T09:25:00.617Z,1224.00
2017-12-06T09:26:00.617Z,1188.00
2017-12-06T09:27:00.600Z,1204.00
2017-12-06T09:28:00.622Z,1296.00
2017-12-06T09:29:00.591Z,1260.00
2017-12-06T09:30:00.583Z,1268.00
2017-12-06T09:31:00.575Z,1332.00
2017-12-06T09:32:00.571Z,1336.00
2017-12-06T09:33:00.569Z,1248.00
2017-12-06T09:34:00.565Z,1312.00
2017-12-06T09:35:00.545Z,1380.00
2017-12-06T09:36:00.538Z,1396.00
2017-12-06T09:37:00.529Z,1368.00
2017-12-06T09:38:00.541Z,1408.00
2017-12-06T09:39:00.520Z,1408.00
2017-12-06T09:40:00.510Z,1392.00
2017-12-06T09:41:00.516Z,1360.00
2017-12-06T09:42:00.492Z,1356.00
2017-12-06T09:43:00.487Z,1380.00
2017-12-06T09:44:00.488Z,1404.00
2017-12-06T09:45:00.473Z,1512.00
2017-12-06T09:46:00.468Z,1588.00
2017-12-06T09:47:00.462Z,1488.00
2017-12-06T09:48:00.476Z,1492.00
2017-12-06T09:49:00.441Z,1532.00
2017-12-06T09:50:00.439Z,1660.00
2017-12-06T09:51:00.460Z,1652.00
2017-12-06T09:52:00.428Z,1544.00
2017-12-06T09:53:00.417Z,1572.00
2017-12-06T09:54:00.421Z,1636.00
2017-12-06T09:55:00.410Z,1712.00
2017-12-06T09:56:00.401Z,1848.00
2017-12-06T09:57:00.391Z,1936.00
2017-12-06T09:58:00.379Z,1888.00
2017-12-06T09:59:00.377Z,1812.00
2017-12-06T10:00:01.258Z,1876.00
2017-12-06T10:01:00.403Z,2016.00
2017-12-06T10:02:00.352Z,2120.00
2017-12-06T10:03:00.346Z,1960.00
2017-12-06T10:04:00.340Z,1808.00
2017-12-06T10:05:00.332Z,1824.00
2017-12-06T10:06:00.323Z,1940.00
2017-12-06T10:07:00.323Z,2000.00
2017-12-06T10:08:00.308Z,2128.00
2017-12-06T10:09:00.301Z,2136.00
2017-12-06T10:10:00.299Z,2068.00
2017-12-06T10:11:00.287Z,2116.00
2017-12-06T10:12:00.290Z,2120.00
2017-12-06T10:13:00.293Z,2136.00
2017-12-06T10:14:00.316Z,2172.00
2017-12-06T10:15:00.266Z,2208.00
2017-12-06T10:16:00.257Z,2076.00
2017-12-06T10:17:00.248Z,1960.00
2017-12-06T10:18:00.240Z,1908.00
2017-12-06T10:19:00.239Z,1904.00
2017-12-06T10:20:00.233Z,2012.00
2017-12-06T10:21:00.215Z,2004.00
2017-12-06T10:22:00.217Z,2012.00
2017-12-06T10:23:00.211Z,1924.00
2017-12-06T10:24:00.205Z,1960.00
2017-12-06T10:25:00.206Z,1884.00
2017-12-06T10:26:00.195Z,1844.00
2017-12-06T10:27:00.184Z,1896.00
2017-12-06T10:28:00.178Z,1892.00
2017-12-06T10:29:00.170Z,1996.00
2017-12-06T10:30:00.170Z,2056.00
2017-12-06T10:31:00.162Z,2028.00
2017-12-06T10:32:00.158Z,2080.00
2017-12-06T10:33:00.146Z,2108.00
2017-12-06T10:34:00.139Z,2044.00
2017-12-06T10:35:00.130Z,1980.00
2017-12-06T10:36:00.129Z,2016.00
2017-12-06T10:37:00.137Z,2036.00
2017-12-06T10:38:00.110Z,1956.00
2017-12-06T10:39:00.104Z,1964.00
2017-12-06T10:40:00.100Z,2112.00
2017-12-06T10:41:00.096Z,2060.00
2017-12-06T10:42:00.083Z,1896.00
2017-12-06T10:43:00.077Z,1960.00
2017-12-06T10:44:00.073Z,2012.00
2017-12-06T10:45:00.067Z,2060.00
2017-12-06T10:46:00.058Z,2112.00
2017-12-06T10:47:00.053Z,2096.00
2017-12-06T10:48:00.043Z,1976.00
2017-12-06T10:49:00.043Z,1896.00
2017-12-06T10:50:00.028Z,1988.00
2017-12-06T10:51:00.025Z,1948.00
2017-12-06T10:52:00.020Z,1780.00
2017-12-06T10:53:00.015Z,1804.00
2017-12-06T10:54:00.008Z,1800.00
2017-12-06T10:55:00.002Z,1848.00
2017-12-06T10:56:00.002Z,1920.00
2017-12-06T10:56:59.996Z,1996.00
2017-12-06T10:58:00.049Z,2032.00
2017-12-06T10:58:59.975Z,2040.00
2017-12-06T10:59:59.968Z,2104.00
2017-12-06T11:00:59.964Z,1996.00
2017-12-06T11:01:59.953Z,1952.00
2017-12-06T11:02:59.947Z,2020.00
2017-12-06T11:03:59.940Z,2096.00
2017-12-06T11:04:59.929Z,2160.00
2017-12-06T11:05:59.956Z,2096.00
2017-12-06T11:06:59.920Z,2152.00
2017-12-06T11:07:59.920Z,2180.00
2017-12-06T11:08:59.907Z,2164.00
2017-12-06T11:09:59.903Z,2168.00
2017-12-06T11:10:59.896Z,2068.00
2017-12-06T11:11:59.888Z,2096.00
2017-12-06T11:12:59.882Z,2220.00
2017-12-06T11:13:59.874Z,2204.00
2017-12-06T11:14:59.875Z,2256.00
2017-12-06T11:15:59.862Z,2216.00
2017-12-06T11:16:59.859Z,2160.00
2017-12-06T11:17:59.847Z,2188.00
2017-12-06T11:18:59.836Z,2232.00
2017-12-06T11:19:59.835Z,2232.00
2017-12-06T11:20:59.821Z,2100.00
2017-12-06T11:21:59.819Z,2200.00
2017-12-06T11:22:59.813Z,2260.00
2017-12-06T11:23:59.809Z,2256.00
2017-12-06T11:24:59.804Z,2296.00
2017-12-06T11:25:59.791Z,2364.00
2017-12-06T11:26:59.787Z,2376.00
2017-12-06T11:27:59.785Z,2320.00
2017-12-06T11:28:59.777Z,2280.00
2017-12-06T11:29:59.771Z,2228.00
2017-12-06T11:30:59.772Z,2248.00
2017-12-06T11:31:59.759Z,2256.00
2017-12-06T11:32:59.747Z,2272.00
2017-12-06T11:33:59.742Z,2256.00
2017-12-06T11:34:59.750Z,2192.00
2017-12-06T11:35:59.729Z,2200.00
2017-12-06T11:36:59.726Z,2116.00
2017-12-06T11:37:59.716Z,2080.00
2017-12-06T11:38:59.717Z,2164.00
2017-12-06T11:39:59.709Z,2224.00
2017-12-06T11:40:59.700Z,2284.00
2017-12-06T11:41:59.695Z,2228.00
2017-12-06T11:42:59.685Z,2180.00
2017-12-06T11:43:59.684Z,2164.00
2017-12-06T11:44:59.672Z,2148.00
2017-12-06T11:45:59.669Z,2152.00
2017-12-06T11:46:59.664Z,2232.00
2017-12-06T11:47:59.652Z,2172.00
2017-12-06T11:48:59.657Z,2148.00
2017-12-06T11:49:59.645Z,2188.00
2017-12-06T11:50:59.648Z,2192.00
2017-12-06T11:51:59.676Z,2268.00
2017-12-06T11:52:59.619Z,2240.00
2017-12-06T11:53:59.605Z,2272.00
2017-12-06T11:54:59.607Z,2280.00
2017-12-06T11:55:59.601Z,2284.00
2017-12-06T11:56:59.599Z,2276.00
2017-12-06T11:57:59.589Z,2264.00
2017-12-06T11:58:59.588Z,2244.00
2017-12-06T11:59:59.578Z,2252.00
2017-12-06T12:00:59.571Z,2248.00
2017-12-06T12:01:59.569Z,2216.00
2017-12-06T12:02:59.559Z,2232.00
2017-12-06T12:03:59.566Z,2252.00
2017-12-06T12:05:00.292Z,2220.00
2017-12-06T12:05:59.544Z,2204.00
2017-12-06T12:06:59.527Z,2188.00
2017-12-06T12:07:59.526Z,2184.00
2017-12-06T12:08:59.529Z,2108.00
2017-12-06T12:09:59.508Z,2132.00
2017-12-06T12:10:59.506Z,2120.00
2017-12-06T12:11:59.497Z,2136.00
2017-12-06T12:12:59.510Z,2148.00
2017-12-06T12:13:59.488Z,2144.00
2017-12-06T12:14:59.484Z,2160.00
2017-12-06T12:15:59.478Z,2276.00
2017-12-06T12:16:59.469Z,2228.00
2017-12-06T12:17:59.464Z,2192.00
2017-12-06T12:18:59.460Z,2168.00
2017-12-06T12:19:59.452Z,2080.00
2017-12-06T12:20:59.435Z,2076.00
2017-12-06T12:21:59.437Z,2264.00
2017-12-06T12:22:59.432Z,2256.00
2017-12-06T12:23:59.425Z,2232.00
2017-12-06T12:24:59.416Z,2280.00
2017-12-06T12:25:59.414Z,2224.00
2017-12-06T12:26:59.405Z,2184.00
2017-12-06T12:27:59.404Z,2308.00
2017-12-06T12:28:59.392Z,2320.00
2017-12-06T12:29:59.389Z,2348.00
2017-12-06T12:30:59.381Z,2404.00
2017-12-06T12:31:59.384Z,2272.00
2017-12-06T12:32:59.370Z,2236.00
2017-12-06T12:33:59.362Z,2256.00
2017-12-06T12:34:59.357Z,2248.00
2017-12-06T12:35:59.358Z,2276.00
2017-12-06T12:36:59.344Z,2344.00
2017-12-06T12:37:59.334Z,2316.00
2017-12-06T12:38:59.330Z,2236.00
2017-12-06T12:39:59.322Z,2172.00
2017-12-06T12:40:59.336Z,2196.00
2017-12-06T12:41:59.306Z,2164.00
2017-12-06T12:42:59.303Z,2080.00
2017-12-06T12:43:59.305Z,2052.00
2017-12-06T12:44:59.294Z,2004.00
2017-12-06T12:45:59.286Z,2016.00
2017-12-06T12:46:59.277Z,1968.00
2017-12-06T12:47:59.277Z,1928.00
2017-12-06T12:48:59.267Z,1836.00